createdAt,value
2018-12-22T00:00:03.625Z,1011.9
2018-12-22T00:01:03.454Z,1011.9
2018-12-22T00:02:03.604Z,1011.8
2018-12-22T00:03:03.957Z,1011.9
2018-12-22T00:04:04.055Z,1011.8
2018-12-22T00:05:03.339Z,1011.8
2018-12-22T00:06:03.557Z,1011.8
2018-12-22T00:07:03.964Z,1011.8
2018-12-22T00:08:03.461Z,1011.7
2018-12-22T00:09:03.224Z,1011.8
2018-12-22T00:10:03.387Z,1011.7
2018-12-22T00:11:03.308Z,1011.7
2018-12-22T00:12:04.116Z,1011.8
2018-12-22T00:13:03.260Z,1011.7
2018-12-22T00:14:03.184Z,1011.8
2018-12-22T00:15:03.480Z,1011.8
2018-12-22T00:16:03.917Z,1011.9
2018-12-22T00:17:03.438Z,1011.7
2018-12-22T00:18:04.022Z,1011.7
2018-12-22T00:19:03.108Z,1011.7
2018-12-22T00:20:03.535Z,1011.8
2018-12-22T00:21:03.934Z,1011.8
2018-12-22T00:22:03.432Z,1011.8
2018-12-22T00:23:03.492Z,1011.8
2018-12-22T00:24:03.656Z,1011.7
2018-12-22T00:25:03.886Z,1011.7
2018-12-22T00:26:03.678Z,1011.8
2018-12-22T00:27:03.378Z,1011.9
2018-12-22T00:28:03.729Z,1011.9
2018-12-22T00:29:03.399Z,1011.9
2018-12-22T00:30:03.227Z,1011.8
2018-12-22T00:31:03.412Z,1011.9
2018-12-22T00:32:03.059Z,1012
2018-12-22T00:33:03.998Z,1011.9
2018-12-22T00:34:03.322Z,1011.9
2018-12-22T00:35:03.384Z,1011.9
2018-12-22T00:36:03.921Z,1011.8
2018-12-22T00:37:03.416Z,1011.8
2018-12-22T00:38:03.663Z,1011.9
2018-12-22T00:39:03.824Z,1011.8
2018-12-22T00:40:03.945Z,1011.9
2018-12-22T00:41:03.016Z,1011.9
2018-12-22T00:42:03.079Z,1011.9
2018-12-22T00:43:03.142Z,1011.9
2018-12-22T00:44:03.456Z,1011.9
2018-12-22T00:45:03.466Z,1011.9
2018-12-22T00:46:03.622Z,1012
2018-12-22T00:47:04.059Z,1011.9
2018-12-22T00:48:03.319Z,1011.9
2018-12-22T00:49:03.886Z,1012
2018-12-22T00:50:03.080Z,1011.9
2018-12-22T00:51:03.200Z,1011.9
2018-12-22T00:52:03.558Z,1011.9
2018-12-22T00:53:03.934Z,1011.9
2018-12-22T00:54:03.010Z,1012
2018-12-22T00:55:03.197Z,1012
2018-12-22T00:56:03.613Z,1011.9
2018-12-22T00:57:03.647Z,1012
2018-12-22T00:58:04.087Z,1012
2018-12-22T00:59:03.826Z,1012.1
2018-12-22T01:00:03.151Z,1012
2018-12-22T01:01:02.897Z,1012
2018-12-22T01:02:03.604Z,1012
2018-12-22T01:03:03.076Z,1012
2018-12-22T01:04:03.414Z,1012
2018-12-22T01:05:04.092Z,1012
2018-12-22T01:06:04.055Z,1012.1
2018-12-22T01:07:03.326Z,1012
2018-12-22T01:08:03.240Z,1011.9
2018-12-22T01:09:03.033Z,1012
2018-12-22T01:10:03.533Z,1011.8
2018-12-22T01:11:03.087Z,1012
2018-12-22T01:12:03.883Z,1011.8
2018-12-22T01:13:04.029Z,1011.8
2018-12-22T01:14:03.913Z,1011.8
2018-12-22T01:15:03.962Z,1011.8
2018-12-22T01:16:03.711Z,1011.8
2018-12-22T01:17:03.686Z,1011.8
2018-12-22T01:18:04.068Z,1011.8
2018-12-22T01:19:03.596Z,1011.8
2018-12-22T01:20:03.100Z,1012
2018-12-22T01:21:03.681Z,1012
2018-12-22T01:22:03.193Z,1011.8
2018-12-22T01:23:03.569Z,1011.8
2018-12-22T01:24:03.110Z,1011.7
2018-12-22T01:25:03.848Z,1011.8
2018-12-22T01:26:03.216Z,1011.7
2018-12-22T01:27:03.888Z,1011.8
2018-12-22T01:28:03.485Z,1011.8
2018-12-22T01:29:03.734Z,1011.8
2018-12-22T01:30:03.239Z,1011.9
2018-12-22T01:31:03.777Z,1011.9
2018-12-22T01:32:03.299Z,1011.9
2018-12-22T01:33:03.065Z,1011.9
2018-12-22T01:34:03.150Z,1011.9
2018-12-22T01:35:03.893Z,1012
2018-12-22T01:36:03.335Z,1012
2018-12-22T01:37:02.907Z,1012
2018-12-22T01:38:03.654Z,1011.9
2018-12-22T01:39:03.002Z,1011.9
2018-12-22T01:40:03.975Z,1011.9
2018-12-22T01:41:03.159Z,1011.9
2018-12-22T01:42:03.378Z,1011.9
2018-12-22T01:43:03.847Z,1011.9
2018-12-22T01:44:03.903Z,1012
2018-12-22T01:45:03.394Z,1011.9
2018-12-22T01:46:03.167Z,1011.9
2018-12-22T01:47:03.438Z,1012
2018-12-22T01:48:03.724Z,1011.9
2018-12-22T01:49:03.195Z,1012
2018-12-22T01:50:03.563Z,1011.9
2018-12-22T01:51:03.327Z,1012
2018-12-22T01:52:03.543Z,1011.9
2018-12-22T01:53:03.102Z,1012
2018-12-22T01:54:03.260Z,1011.9
2018-12-22T01:55:03.343Z,1011.9
2018-12-22T01:56:04.514Z,1011.8
2018-12-22T01:57:03.968Z,1012
2018-12-22T01:58:02.983Z,1012
2018-12-22T01:59:02.964Z,1012
2018-12-22T02:00:03.842Z,1011.9
2018-12-22T02:01:03.079Z,1011.9
2018-12-22T02:02:03.204Z,1012
2018-12-22T02:03:03.195Z,1011.9
2018-12-22T02:04:04.174Z,1012
2018-12-22T02:05:03.469Z,1011.9
2018-12-22T02:06:03.717Z,1012
2018-12-22T02:07:03.479Z,1012
2018-12-22T02:08:03.757Z,1012
2018-12-22T02:09:03.335Z,1011.9
2018-12-22T02:10:02.938Z,1011.9
2018-12-22T02:11:03.362Z,1012
2018-12-22T02:12:03.528Z,1012
2018-12-22T02:13:03.997Z,1011.9
2018-12-22T02:14:03.159Z,1011.9
2018-12-22T02:15:04.130Z,1012
2018-12-22T02:16:03.088Z,1012
2018-12-22T02:17:04.346Z,1011.9
2018-12-22T02:18:03.915Z,1012.1
2018-12-22T02:19:03.011Z,1012.1
2018-12-22T02:20:03.038Z,1012
2018-12-22T02:21:03.119Z,1012
2018-12-22T02:22:04.338Z,1012.1
2018-12-22T02:23:03.111Z,1012.1
2018-12-22T02:24:03.525Z,1012.1
2018-12-22T02:25:03.938Z,1012.1
2018-12-22T02:26:03.317Z,1012.1
2018-12-22T02:27:03.828Z,1012.1
2018-12-22T02:28:03.081Z,1012.1
2018-12-22T02:29:03.048Z,1012.1
2018-12-22T02:30:03.491Z,1012
2018-12-22T02:31:03.518Z,1012.1
2018-12-22T02:32:03.300Z,1012.1
2018-12-22T02:33:03.038Z,1012.2
2018-12-22T02:34:04.011Z,1012.1
2018-12-22T02:35:03.946Z,1012.1
2018-12-22T02:36:03.806Z,1012.1
2018-12-22T02:37:03.578Z,1012.1
2018-12-22T02:38:04.162Z,1012
2018-12-22T02:39:03.776Z,1011.9
2018-12-22T02:40:03.747Z,1012
2018-12-22T02:41:03.821Z,1011.9
2018-12-22T02:42:03.309Z,1012
2018-12-22T02:43:03.099Z,1012.1
2018-12-22T02:44:03.551Z,1012
2018-12-22T02:45:04.036Z,1012.1
2018-12-22T02:46:03.530Z,1012.1
2018-12-22T02:47:03.921Z,1012
2018-12-22T02:48:03.853Z,1012
2018-12-22T02:49:03.849Z,1012
2018-12-22T02:50:03.697Z,1012
2018-12-22T02:51:03.198Z,1012
2018-12-22T02:52:03.770Z,1011.9
2018-12-22T02:53:03.694Z,1012
2018-12-22T02:54:03.250Z,1011.9
2018-12-22T02:55:03.850Z,1012
2018-12-22T02:56:03.769Z,1012
2018-12-22T02:57:03.749Z,1011.9
2018-12-22T02:58:02.916Z,1011.9
2018-12-22T02:59:06.862Z,1011.9
2018-12-22T03:00:03.995Z,1011.9
2018-12-22T03:01:04.091Z,1011.9
2018-12-22T03:02:02.884Z,1012
2018-12-22T03:03:04.426Z,1012
2018-12-22T03:04:03.278Z,1011.9
2018-12-22T03:05:04.483Z,1012
2018-12-22T03:06:03.799Z,1011.9
2018-12-22T03:07:03.579Z,1011.9
2018-12-22T03:08:03.184Z,1011.8
2018-12-22T03:09:03.653Z,1011.8
2018-12-22T03:10:03.616Z,1011.9
2018-12-22T03:11:03.203Z,1011.9
2018-12-22T03:12:03.122Z,1011.7
2018-12-22T03:13:04.088Z,1011.8
2018-12-22T03:14:03.881Z,1011.8
2018-12-22T03:15:04.054Z,1011.7
2018-12-22T03:16:03.062Z,1011.8
2018-12-22T03:17:03.113Z,1011.8
2018-12-22T03:18:04.138Z,1011.7
2018-12-22T03:19:03.922Z,1011.7
2018-12-22T03:20:03.643Z,1011.8
2018-12-22T03:21:03.847Z,1011.8
2018-12-22T03:22:03.872Z,1011.7
2018-12-22T03:23:03.844Z,1011.8
2018-12-22T03:24:03.288Z,1011.8
2018-12-22T03:25:03.597Z,1011.7
2018-12-22T03:26:03.869Z,1011.6
2018-12-22T03:27:03.196Z,1011.7
2018-12-22T03:28:03.570Z,1011.6
2018-12-22T03:29:03.444Z,1011.7
2018-12-22T03:30:03.895Z,1011.6
2018-12-22T03:31:03.251Z,1011.6
2018-12-22T03:32:03.182Z,1011.6
2018-12-22T03:33:03.137Z,1011.7
2018-12-22T03:34:03.769Z,1011.7
2018-12-22T03:35:03.643Z,1011.8
2018-12-22T03:36:03.584Z,1011.6
2018-12-22T03:37:03.573Z,1011.7
2018-12-22T03:38:03.559Z,1011.6
2018-12-22T03:39:03.584Z,1011.6
2018-12-22T03:40:03.498Z,1011.7
2018-12-22T03:41:03.599Z,1011.6
2018-12-22T03:42:03.132Z,1011.7
2018-12-22T03:43:03.302Z,1011.6
2018-12-22T03:44:03.255Z,1011.6
2018-12-22T03:45:03.475Z,1011.6
2018-12-22T03:46:03.255Z,1011.7
2018-12-22T03:47:03.234Z,1011.7
2018-12-22T03:48:03.470Z,1011.7
2018-12-22T03:49:03.016Z,1011.6
2018-12-22T03:50:03.854Z,1011.6
2018-12-22T03:51:03.216Z,1011.7
2018-12-22T03:52:03.858Z,1011.7
2018-12-22T03:53:03.220Z,1011.7
2018-12-22T03:54:03.881Z,1011.7
2018-12-22T03:55:03.660Z,1011.8
2018-12-22T03:56:03.728Z,1011.7
2018-12-22T03:57:03.411Z,1011.7
2018-12-22T03:58:03.217Z,1011.7
2018-12-22T03:59:03.477Z,1011.7
2018-12-22T04:00:03.241Z,1011.7
2018-12-22T04:01:03.673Z,1011.6
2018-12-22T04:02:03.701Z,1011.6
2018-12-22T04:03:03.789Z,1011.6
2018-12-22T04:04:03.176Z,1011.7
2018-12-22T04:05:03.007Z,1011.6
2018-12-22T04:06:04.155Z,1011.6
2018-12-22T04:07:03.934Z,1011.6
2018-12-22T04:08:03.713Z,1011.5
2018-12-22T04:09:04.909Z,1011.5
2018-12-22T04:10:03.234Z,1011.5
2018-12-22T04:11:03.869Z,1011.5
2018-12-22T04:12:04.006Z,1011.5
2018-12-22T04:13:03.868Z,1011.5
2018-12-22T04:14:03.199Z,1011.5
2018-12-22T04:15:03.930Z,1011.6
2018-12-22T04:16:03.664Z,1011.4
2018-12-22T04:17:03.215Z,1011.5
2018-12-22T04:18:03.256Z,1011.4
2018-12-22T04:19:03.820Z,1011.4
2018-12-22T04:20:03.727Z,1011.4
2018-12-22T04:21:03.852Z,1011.3
2018-12-22T04:22:03.921Z,1011.4
2018-12-22T04:23:03.714Z,1011.5
2018-12-22T04:24:03.456Z,1011.4
2018-12-22T04:25:03.765Z,1011.4
2018-12-22T04:26:03.496Z,1011.5
2018-12-22T04:27:03.649Z,1011.5
2018-12-22T04:28:03.270Z,1011.4
2018-12-22T04:29:03.685Z,1011.5
2018-12-22T04:30:03.359Z,1011.5
2018-12-22T04:31:03.356Z,1011.4
2018-12-22T04:32:03.064Z,1011.5
2018-12-22T04:33:03.622Z,1011.5
2018-12-22T04:34:03.851Z,1011.4
2018-12-22T04:35:03.914Z,1011.5
2018-12-22T04:36:03.463Z,1011.5
2018-12-22T04:37:03.085Z,1011.5
2018-12-22T04:38:03.749Z,1011.6
2018-12-22T04:39:03.038Z,1011.5
2018-12-22T04:40:03.457Z,1011.4
2018-12-22T04:41:06.128Z,1011.5
2018-12-22T04:42:03.042Z,1011.5
2018-12-22T04:43:03.803Z,1011.5
2018-12-22T04:44:03.128Z,1011.5
2018-12-22T04:45:03.595Z,1011.5
2018-12-22T04:46:03.885Z,1011.5
2018-12-22T04:47:03.794Z,1011.5
2018-12-22T04:48:03.805Z,1011.5
2018-12-22T04:49:03.893Z,1011.4
2018-12-22T04:50:03.652Z,1011.4
2018-12-22T04:51:03.095Z,1011.5
2018-12-22T04:52:03.350Z,1011.5
2018-12-22T04:53:03.395Z,1011.5
2018-12-22T04:54:03.235Z,1011.6
2018-12-22T04:55:03.112Z,1011.6
2018-12-22T04:56:03.702Z,1011.6
2018-12-22T04:57:03.850Z,1011.6
2018-12-22T04:58:03.153Z,1011.7
2018-12-22T04:59:03.524Z,1011.7
2018-12-22T05:00:03.821Z,1011.7
2018-12-22T05:01:03.829Z,1011.8
2018-12-22T05:02:02.984Z,1011.8
2018-12-22T05:03:03.658Z,1011.8
2018-12-22T05:04:03.320Z,1011.8
2018-12-22T05:05:04.524Z,1011.8
2018-12-22T05:06:03.797Z,1011.8
2018-12-22T05:07:03.552Z,1011.9
2018-12-22T05:08:03.491Z,1011.9
2018-12-22T05:09:03.209Z,1011.8
2018-12-22T05:10:07.011Z,1011.8
2018-12-22T05:11:03.483Z,1011.8
2018-12-22T05:12:03.473Z,1011.8
2018-12-22T05:13:03.662Z,1012.1
2018-12-22T05:14:04.000Z,1011.9
2018-12-22T05:15:03.506Z,1011.9
2018-12-22T05:16:03.044Z,1011.7
2018-12-22T05:17:03.212Z,1011.8
2018-12-22T05:18:03.464Z,1011.9
2018-12-22T05:19:03.607Z,1011.8
2018-12-22T05:20:03.660Z,1011.8
2018-12-22T05:21:03.432Z,1011.9
2018-12-22T05:22:03.921Z,1011.8
2018-12-22T05:23:02.920Z,1011.9
2018-12-22T05:24:03.341Z,1011.9
2018-12-22T05:25:03.393Z,1012
2018-12-22T05:26:03.984Z,1012.1
2018-12-22T05:27:03.623Z,1012.1
2018-12-22T05:28:03.290Z,1012.1
2018-12-22T05:29:04.053Z,1011.8
2018-12-22T05:30:03.936Z,1011.8
2018-12-22T05:31:03.359Z,1012
2018-12-22T05:32:03.597Z,1012
2018-12-22T05:33:03.732Z,1011.9
2018-12-22T05:34:03.644Z,1011.9
2018-12-22T05:35:03.649Z,1012
2018-12-22T05:36:03.778Z,1012
2018-12-22T05:37:03.231Z,1012.1
2018-12-22T05:38:04.006Z,1012.2
2018-12-22T05:39:03.104Z,1012.1
2018-12-22T05:40:03.890Z,1012.1
2018-12-22T05:41:03.951Z,1011.8
2018-12-22T05:42:03.488Z,1012.1
2018-12-22T05:43:03.694Z,1012.1
2018-12-22T05:44:03.341Z,1012.1
2018-12-22T05:45:04.584Z,1012.2
2018-12-22T05:46:03.696Z,1011.9
2018-12-22T05:47:03.107Z,1012.1
2018-12-22T05:48:03.745Z,1012.1
2018-12-22T05:49:03.487Z,1012
2018-12-22T05:50:03.668Z,1012.1
2018-12-22T05:51:04.008Z,1012.1
2018-12-22T05:52:03.019Z,1012.2
2018-12-22T05:53:03.851Z,1012.1
2018-12-22T05:54:03.408Z,1012
2018-12-22T05:55:03.123Z,1012
2018-12-22T05:56:03.322Z,1012
2018-12-22T05:57:03.503Z,1012
2018-12-22T05:58:03.464Z,1012
2018-12-22T05:59:03.825Z,1012.1
2018-12-22T06:00:03.792Z,1012
2018-12-22T06:01:03.175Z,1012
2018-12-22T06:02:03.276Z,1012
2018-12-22T06:03:03.258Z,1012
2018-12-22T06:04:03.308Z,1012.1
2018-12-22T06:05:04.097Z,1012
2018-12-22T06:06:03.106Z,1012.1
2018-12-22T06:07:03.578Z,1012
2018-12-22T06:08:03.944Z,1012
2018-12-22T06:09:03.648Z,1012
2018-12-22T06:10:03.307Z,1012.1
2018-12-22T06:11:03.429Z,1012.1
2018-12-22T06:12:03.548Z,1012.1
2018-12-22T06:13:03.261Z,1012.1
2018-12-22T06:14:03.355Z,1012.1
2018-12-22T06:15:03.296Z,1012.1
2018-12-22T06:16:03.691Z,1012.1
2018-12-22T06:17:03.544Z,1012.2
2018-12-22T06:18:03.125Z,1012.2
2018-12-22T06:19:03.686Z,1012.2
2018-12-22T06:20:03.968Z,1012.1
2018-12-22T06:21:03.554Z,1012
2018-12-22T06:22:03.671Z,1012
2018-12-22T06:23:03.394Z,1012
2018-12-22T06:24:03.469Z,1012
2018-12-22T06:25:03.266Z,1012
2018-12-22T06:26:03.758Z,1012
2018-12-22T06:27:03.059Z,1012.1
2018-12-22T06:28:03.891Z,1012.1
2018-12-22T06:29:03.026Z,1012.1
2018-12-22T06:30:09.937Z,1012
2018-12-22T06:31:03.946Z,1012
2018-12-22T06:32:03.489Z,1012
2018-12-22T06:33:03.404Z,1012.1
2018-12-22T06:34:03.866Z,1012
2018-12-22T06:35:03.121Z,1012
2018-12-22T06:36:03.420Z,1012.1
2018-12-22T06:37:04.090Z,1012.1
2018-12-22T06:38:03.224Z,1012.1
2018-12-22T06:39:03.746Z,1012.2
2018-12-22T06:40:03.589Z,1012
2018-12-22T06:41:03.236Z,1012.1
2018-12-22T06:42:03.796Z,1012.1
2018-12-22T06:43:03.153Z,1012.1
2018-12-22T06:44:03.044Z,1012.1
2018-12-22T06:45:03.396Z,1012.1
2018-12-22T06:46:04.380Z,1012.1
2018-12-22T06:47:03.191Z,1012.2
2018-12-22T06:48:03.862Z,1012.1
2018-12-22T06:49:03.279Z,1012.2
2018-12-22T06:50:03.750Z,1012.1
2018-12-22T06:51:03.200Z,1012.1
2018-12-22T06:52:03.705Z,1012.1
2018-12-22T06:53:03.014Z,1012.2
2018-12-22T06:54:03.290Z,1012.2
2018-12-22T06:55:03.362Z,1012.2
2018-12-22T06:56:03.011Z,1012.2
2018-12-22T06:57:03.632Z,1012.1
2018-12-22T06:58:03.665Z,1012.2
2018-12-22T06:59:03.813Z,1012.4
2018-12-22T07:00:03.794Z,1012.3
2018-12-22T07:01:03.140Z,1012.3
2018-12-22T07:02:03.479Z,1012.2
2018-12-22T07:03:03.813Z,1012.3
2018-12-22T07:04:03.289Z,1012.2
2018-12-22T07:05:03.975Z,1012.3
2018-12-22T07:06:03.501Z,1012.3
2018-12-22T07:07:04.034Z,1012.3
2018-12-22T07:08:03.621Z,1012.2
2018-12-22T07:09:03.185Z,1012.3
2018-12-22T07:10:03.242Z,1012.3
2018-12-22T07:11:03.018Z,1012.3
2018-12-22T07:12:03.730Z,1012.2
2018-12-22T07:13:03.383Z,1012.3
2018-12-22T07:14:03.384Z,1012.4
2018-12-22T07:15:03.634Z,1012.3
2018-12-22T07:16:03.299Z,1012.3
2018-12-22T07:17:03.880Z,1012.4
2018-12-22T07:18:03.210Z,1012.1
2018-12-22T07:19:03.739Z,1012.3
2018-12-22T07:20:03.103Z,1012.4
2018-12-22T07:21:03.933Z,1012.3
2018-12-22T07:22:03.083Z,1012.3
2018-12-22T07:23:03.674Z,1012.3
2018-12-22T07:24:02.951Z,1012
2018-12-22T07:25:03.091Z,1012.3
2018-12-22T07:26:03.618Z,1012.4
2018-12-22T07:27:02.927Z,1012.4
2018-12-22T07:28:03.567Z,1012.4
2018-12-22T07:29:03.960Z,1012.5
2018-12-22T07:30:03.153Z,1012.4
2018-12-22T07:31:03.304Z,1012.4
2018-12-22T07:32:03.480Z,1012.4
2018-12-22T07:33:03.901Z,1012.5
2018-12-22T07:34:03.438Z,1012.4
2018-12-22T07:35:03.797Z,1012.5
2018-12-22T07:36:03.596Z,1012.4
2018-12-22T07:37:03.104Z,1012.4
2018-12-22T07:38:03.913Z,1012.5
2018-12-22T07:39:03.161Z,1012.5
2018-12-22T07:40:03.382Z,1012.5
2018-12-22T07:41:03.550Z,1012.5
2018-12-22T07:42:03.420Z,1012.5
2018-12-22T07:43:03.167Z,1012.5
2018-12-22T07:44:03.946Z,1012.5
2018-12-22T07:45:03.833Z,1012.5
2018-12-22T07:46:03.450Z,1012.5
2018-12-22T07:47:03.626Z,1012.4
2018-12-22T07:48:03.337Z,1012.4
2018-12-22T07:49:02.989Z,1012.4
2018-12-22T07:50:03.967Z,1012.5
2018-12-22T07:51:03.916Z,1012.4
2018-12-22T07:52:03.566Z,1012.4
2018-12-22T07:53:03.401Z,1012.4
2018-12-22T07:54:03.068Z,1012.4
2018-12-22T07:55:03.997Z,1012.5
2018-12-22T07:56:03.702Z,1012.4
2018-12-22T07:57:03.547Z,1012.3
2018-12-22T07:58:03.641Z,1012.3
2018-12-22T07:59:04.007Z,1012.4
2018-12-22T08:00:03.214Z,1012.4
2018-12-22T08:01:03.382Z,1012.4
2018-12-22T08:02:03.962Z,1012.4
2018-12-22T08:03:03.622Z,1012.5
2018-12-22T08:04:03.043Z,1012.4
2018-12-22T08:05:03.770Z,1012.4
2018-12-22T08:06:03.264Z,1012.5
2018-12-22T08:07:03.571Z,1012.4
2018-12-22T08:08:02.913Z,1012.4
2018-12-22T08:09:03.792Z,1012.5
2018-12-22T08:10:03.930Z,1012.6
2018-12-22T08:11:03.110Z,1012.5
2018-12-22T08:12:03.661Z,1012.4
2018-12-22T08:13:03.172Z,1012.5
2018-12-22T08:14:03.402Z,1012.4
2018-12-22T08:15:03.803Z,1012.5
2018-12-22T08:16:03.546Z,1012.6
2018-12-22T08:17:03.839Z,1012.6
2018-12-22T08:18:03.084Z,1012.6
2018-12-22T08:19:02.969Z,1012.6
2018-12-22T08:20:03.913Z,1012.6
2018-12-22T08:21:03.441Z,1012.6
2018-12-22T08:22:03.725Z,1012.7
2018-12-22T08:23:03.687Z,1012.8
2018-12-22T08:24:03.692Z,1012.6
2018-12-22T08:25:03.701Z,1012.8
2018-12-22T08:26:03.018Z,1012.8
2018-12-22T08:27:03.654Z,1012.9
2018-12-22T08:28:03.049Z,1012.9
2018-12-22T08:29:03.640Z,1012.9
2018-12-22T08:30:03.174Z,1012.8
2018-12-22T08:31:03.864Z,1012.8
2018-12-22T08:32:03.826Z,1012.9
2018-12-22T08:33:02.932Z,1012.9
2018-12-22T08:34:03.188Z,1013
2018-12-22T08:35:03.610Z,1013
2018-12-22T08:36:03.651Z,1013
2018-12-22T08:37:03.925Z,1012.9
2018-12-22T08:38:03.486Z,1013
2018-12-22T08:39:03.329Z,1013
2018-12-22T08:40:03.428Z,1013
2018-12-22T08:41:03.142Z,1013.1
2018-12-22T08:42:03.279Z,1013
2018-12-22T08:43:03.073Z,1013.1
2018-12-22T08:44:03.818Z,1013.2
2018-12-22T08:45:03.202Z,1013.1
2018-12-22T08:46:03.014Z,1013.1
2018-12-22T08:47:03.949Z,1013.2
2018-12-22T08:48:03.849Z,1013.2
2018-12-22T08:49:03.178Z,1013.2
2018-12-22T08:50:09.880Z,1013.2
2018-12-22T08:51:03.972Z,1013.4
2018-12-22T08:52:03.495Z,1013.2
2018-12-22T08:53:03.684Z,1013.3
2018-12-22T08:54:03.600Z,1013.2
2018-12-22T08:55:03.474Z,1013.4
2018-12-22T08:56:03.557Z,1013.4
2018-12-22T08:57:03.021Z,1013.5
2018-12-22T08:58:03.453Z,1013.4
2018-12-22T08:59:03.530Z,1013.3
2018-12-22T09:00:03.597Z,1013.2
2018-12-22T09:01:03.218Z,1013.3
2018-12-22T09:02:03.538Z,1013.3
2018-12-22T09:03:03.845Z,1013.3
2018-12-22T09:04:03.716Z,1013.3
2018-12-22T09:05:03.592Z,1013.5
2018-12-22T09:06:03.533Z,1013.4
2018-12-22T09:07:03.863Z,1013.4
2018-12-22T09:08:03.192Z,1013.5
2018-12-22T09:09:03.150Z,1013.5
2018-12-22T09:10:02.836Z,1013.5
2018-12-22T09:11:03.450Z,1013.4
2018-12-22T09:12:03.438Z,1013.5
2018-12-22T09:13:03.266Z,1013.5
2018-12-22T09:14:03.997Z,1013.4
2018-12-22T09:15:03.830Z,1013.4
2018-12-22T09:16:03.934Z,1013.5
2018-12-22T09:17:03.102Z,1013.6
2018-12-22T09:18:03.391Z,1013.7
2018-12-22T09:19:03.558Z,1013.6
2018-12-22T09:20:03.090Z,1013.6
2018-12-22T09:21:03.448Z,1013.7
2018-12-22T09:22:03.383Z,1013.6
2018-12-22T09:23:03.290Z,1013.6
2018-12-22T09:24:04.473Z,1013.7
2018-12-22T09:25:03.815Z,1013.6
2018-12-22T09:26:03.506Z,1013.7
2018-12-22T09:27:03.783Z,1013.8
2018-12-22T09:28:03.313Z,1013.7
2018-12-22T09:29:03.453Z,1013.8
2018-12-22T09:30:03.802Z,1013.8
2018-12-22T09:31:03.895Z,1013.7
2018-12-22T09:32:03.892Z,1013.8
2018-12-22T09:33:03.449Z,1013.7
2018-12-22T09:34:03.753Z,1013.7
2018-12-22T09:35:03.306Z,1013.8
2018-12-22T09:36:03.677Z,1013.9
2018-12-22T09:37:02.854Z,1014
2018-12-22T09:38:03.585Z,1013.8
2018-12-22T09:39:03.598Z,1014
2018-12-22T09:40:03.664Z,1013.9
2018-12-22T09:41:03.381Z,1014
2018-12-22T09:42:03.092Z,1014
2018-12-22T09:43:03.098Z,1014
2018-12-22T09:44:03.419Z,1014
2018-12-22T09:45:03.706Z,1014.1
2018-12-22T09:46:03.980Z,1014.1
2018-12-22T09:47:03.227Z,1014.2
2018-12-22T09:48:03.247Z,1014
2018-12-22T09:49:03.374Z,1014.3
2018-12-22T09:50:03.472Z,1014.3
2018-12-22T09:51:03.512Z,1014.5
2018-12-22T09:52:03.777Z,1014.7
2018-12-22T09:53:03.845Z,1014.8
2018-12-22T09:54:03.419Z,1014.6
2018-12-22T09:55:03.522Z,1014.8
2018-12-22T09:56:03.262Z,1014.6
2018-12-22T09:57:03.885Z,1014.8
2018-12-22T09:58:02.979Z,1014.6
2018-12-22T09:59:03.656Z,1014.8
2018-12-22T10:00:03.325Z,1014.6
2018-12-22T10:01:10.035Z,1014.6
2018-12-22T10:02:03.895Z,1014.7
2018-12-22T10:03:03.827Z,1014.9
2018-12-22T10:04:03.762Z,1014.9
2018-12-22T10:05:03.543Z,1015
2018-12-22T10:06:03.640Z,1015
2018-12-22T10:07:03.184Z,1014.9
2018-12-22T10:08:03.442Z,1014.8
2018-12-22T10:09:03.516Z,1014.8
2018-12-22T10:10:03.529Z,1014.8
2018-12-22T10:11:03.026Z,1014.7
2018-12-22T10:12:03.378Z,1014.9
2018-12-22T10:13:03.425Z,1014.8
2018-12-22T10:14:03.631Z,1014.8
2018-12-22T10:15:03.786Z,1015
2018-12-22T10:16:03.949Z,1014.7
2018-12-22T10:17:05.337Z,1014.8
2018-12-22T10:18:03.657Z,1015.1
2018-12-22T10:19:03.990Z,1015.1
2018-12-22T10:20:03.657Z,1014.9
2018-12-22T10:21:03.126Z,1014.9
2018-12-22T10:22:02.998Z,1015
2018-12-22T10:23:03.850Z,1015.2
2018-12-22T10:24:03.831Z,1015.2
2018-12-22T10:25:03.787Z,1015
2018-12-22T10:26:02.991Z,1015.1
2018-12-22T10:27:03.770Z,1015.2
2018-12-22T10:28:03.864Z,1015
2018-12-22T10:29:03.227Z,1015.1
2018-12-22T10:30:03.007Z,1015.1
2018-12-22T10:31:03.276Z,1014.9
2018-12-22T10:32:03.635Z,1014.9
2018-12-22T10:33:03.396Z,1015
2018-12-22T10:34:03.082Z,1015.1
2018-12-22T10:35:04.065Z,1015
2018-12-22T10:36:03.985Z,1014.9
2018-12-22T10:37:03.058Z,1015
2018-12-22T10:38:03.413Z,1015
2018-12-22T10:39:03.620Z,1015
2018-12-22T10:40:04.065Z,1015.1
2018-12-22T10:41:03.186Z,1015.1
2018-12-22T10:42:03.009Z,1015.1
2018-12-22T10:43:03.844Z,1015.2
2018-12-22T10:44:03.813Z,1015.1
2018-12-22T10:45:04.084Z,1015.2
2018-12-22T10:46:02.947Z,1015.1
2018-12-22T10:47:03.293Z,1015.3
2018-12-22T10:48:03.353Z,1015.3
2018-12-22T10:49:03.845Z,1015.2
2018-12-22T10:50:03.239Z,1015.3
2018-12-22T10:51:03.578Z,1015.2
2018-12-22T10:52:03.732Z,1015.3
2018-12-22T10:53:03.547Z,1015.2
2018-12-22T10:54:03.220Z,1015.2
2018-12-22T10:55:03.673Z,1015.2
2018-12-22T10:56:04.116Z,1015.2
2018-12-22T10:57:04.612Z,1015.3
2018-12-22T10:58:03.339Z,1015.1
2018-12-22T10:59:03.346Z,1015.2
2018-12-22T11:00:03.709Z,1015.2
2018-12-22T11:01:03.275Z,1015.2
2018-12-22T11:02:03.412Z,1015.3
2018-12-22T11:03:03.822Z,1015.3
2018-12-22T11:04:03.103Z,1015.3
2018-12-22T11:05:03.649Z,1015.3
2018-12-22T11:06:03.297Z,1015.3
2018-12-22T11:07:03.070Z,1015.3
2018-12-22T11:08:02.933Z,1015.3
2018-12-22T11:09:03.212Z,1015
2018-12-22T11:10:03.776Z,1015.2
2018-12-22T11:11:03.077Z,1015.1
2018-12-22T11:12:03.685Z,1015
2018-12-22T11:13:04.320Z,1015.2
2018-12-22T11:14:03.012Z,1015.1
2018-12-22T11:15:04.059Z,1015.2
2018-12-22T11:16:03.507Z,1015.2
2018-12-22T11:17:03.007Z,1015.2
2018-12-22T11:18:03.134Z,1015
2018-12-22T11:19:04.050Z,1015.2
2018-12-22T11:20:03.103Z,1015.1
2018-12-22T11:21:03.165Z,1015.2
2018-12-22T11:22:02.943Z,1015.2
2018-12-22T11:23:04.176Z,1015.2
2018-12-22T11:24:03.384Z,1015.2
2018-12-22T11:25:03.624Z,1015.2
2018-12-22T11:26:03.170Z,1015.1
2018-12-22T11:27:03.469Z,1015.2
2018-12-22T11:28:03.975Z,1015.1
2018-12-22T11:29:03.221Z,1015.3
2018-12-22T11:30:03.715Z,1015.1
2018-12-22T11:31:03.165Z,1015.3
2018-12-22T11:32:03.064Z,1015.4
2018-12-22T11:33:04.105Z,1015.3
2018-12-22T11:34:04.137Z,1015.4
2018-12-22T11:35:03.568Z,1015.5
2018-12-22T11:36:03.779Z,1015.5
2018-12-22T11:37:03.735Z,1015.7
2018-12-22T11:38:03.783Z,1015.7
2018-12-22T11:39:03.532Z,1015.5
2018-12-22T11:40:03.419Z,1015.7
2018-12-22T11:41:03.991Z,1015.7
2018-12-22T11:42:03.740Z,1015.7
2018-12-22T11:43:04.162Z,1015.5
2018-12-22T11:44:03.579Z,1015.5
2018-12-22T11:45:03.756Z,1015.4
2018-12-22T11:46:03.495Z,1015.4
2018-12-22T11:47:03.515Z,1015.4
2018-12-22T11:48:03.187Z,1015.4
2018-12-22T11:49:03.906Z,1015.4
2018-12-22T11:50:03.635Z,1015.4
2018-12-22T11:51:03.396Z,1015.4
2018-12-22T11:52:03.744Z,1015.4
2018-12-22T11:53:03.543Z,1015.3
2018-12-22T11:54:02.893Z,1015.3
2018-12-22T11:55:03.790Z,1015.4
2018-12-22T11:56:03.620Z,1015.5
2018-12-22T11:57:03.389Z,1015.4
2018-12-22T11:58:03.124Z,1015.4
2018-12-22T11:59:03.065Z,1015.4
2018-12-22T12:00:04.032Z,1015.4
2018-12-22T12:01:03.544Z,1015.4
2018-12-22T12:02:10.433Z,1015.3
2018-12-22T12:03:03.420Z,1015.4
2018-12-22T12:04:03.481Z,1015.4
2018-12-22T12:05:03.263Z,1015.3
2018-12-22T12:06:03.576Z,1015.4
2018-12-22T12:07:03.500Z,1015.4
2018-12-22T12:08:03.786Z,1015.4
2018-12-22T12:09:03.603Z,1015.6
2018-12-22T12:10:03.200Z,1015.5
2018-12-22T12:11:02.900Z,1015.5
2018-12-22T12:12:03.234Z,1015.5
2018-12-22T12:13:03.853Z,1015.6
2018-12-22T12:14:03.346Z,1015.7
2018-12-22T12:15:03.123Z,1015.6
2018-12-22T12:16:03.443Z,1015.5
2018-12-22T12:17:03.347Z,1015.6
2018-12-22T12:18:03.415Z,1015.6
2018-12-22T12:19:03.179Z,1015.6
2018-12-22T12:20:03.030Z,1015.8
2018-12-22T12:21:03.998Z,1015.7
2018-12-22T12:22:04.073Z,1015.8
2018-12-22T12:23:03.839Z,1015.8
2018-12-22T12:24:03.257Z,1015.9
2018-12-22T12:25:03.940Z,1015.9
2018-12-22T12:26:03.498Z,1015.8
2018-12-22T12:27:03.169Z,1015.9
2018-12-22T12:28:03.326Z,1015.9
2018-12-22T12:29:03.273Z,1015.8
2018-12-22T12:30:03.628Z,1015.8
2018-12-22T12:31:04.138Z,1015.8
2018-12-22T12:32:03.650Z,1015.8
2018-12-22T12:33:03.681Z,1015.9
2018-12-22T12:34:03.493Z,1015.8
2018-12-22T12:35:03.921Z,1016